Time;durP1;ratioP1;P1;durP2;ratioP2;P2;SDS_P1;SDS_P2;PMS_P1;PMS_P2;Temp;Humidity;BMP_temperature;BMP_pressure;BME280_temperature;BME280_humidity;BME280_pressure;Samples;Min_cycle;Max_cycle;Signal;HPM_P1;HPM_P2
2021/12/17 00:05:18;;;;;;;22.52;12.77;;;;;;;0.22;79.01;94009.72;5080138;28;20449;-38
2021/12/17 00:07:14;;;;;;;20.63;12.07;;;;;;;0.40;79.01;94039.38;5070980;28;20047;-38
2021/12/17 00:09:41;;;;;;;17.70;12.20;;;;;;;0.33;79.54;94035.06;5079361;28;20604;-38
2021/12/17 00:12:09;;;;;;;22.77;13.38;;;;;;;0.06;80.15;94045.44;5078718;28;20077;-38
2021/12/17 00:14:37;;;;;;;22.75;13.73;;;;;;;-0.05;80.87;94046.00;5080545;28;20486;-38
2021/12/17 00:17:06;;;;;;;22.43;13.40;;;;;;;-0.14;81.77;94046.84;5080712;28;20047;-38
2021/12/17 00:49:26;;;;;;;21.50;12.05;;;;;;;0.85;78.19;94052.44;5079227;28;21453;-37
2021/12/17 00:54:29;;;;;;;21.70;13.17;;;;;;;0.99;77.13;94027.22;5078170;28;20056;-37
2021/12/17 00:56:55;;;;;;;21.98;12.05;;;;;;;0.80;77.75;94039.53;5078177;28;20020;-36
2021/12/17 00:59:22;;;;;;;19.15;11.82;;;;;;;0.65;78.08;94036.09;5079348;28;20024;-36
2021/12/17 01:01:49;;;;;;;18.35;11.27;;;;;;;0.79;78.24;94027.16;5078923;28;20036;-36
2021/12/17 01:04:15;;;;;;;18.67;11.57;;;;;;;0.92;77.91;94021.41;5080350;28;20036;-36
2021/12/17 01:06:42;;;;;;;18.50;10.23;;;;;;;0.85;78.35;94019.06;5080596;28;20032;-36
2021/12/17 01:09:10;;;;;;;16.35;10.70;;;;;;;0.94;77.87;94022.44;5078949;28;20048;-36
2021/12/17 01:11:36;;;;;;;16.20;9.23;;;;;;;0.71;77.63;94004.31;5079509;28;20493;-37
2021/12/17 01:14:02;;;;;;;16.67;9.15;;;;;;;0.78;77.15;93999.22;5078703;28;20035;-36
2021/12/17 01:16:28;;;;;;;15.98;9.05;;;;;;;0.93;76.63;94026.41;5082011;28;20032;-36
2021/12/17 01:22:02;;;;;;;13.85;8.35;;;;;;;1.13;75.87;94018.25;5077940;28;20047;-36
2021/12/17 01:24:45;;;;;;;17.00;9.55;;;;;;;1.19;75.74;94016.34;5079548;28;20039;-36
2021/12/17 01:35:37;;;;;;;14.68;9.25;;;;;;;1.06;77.13;94007.03;5077719;28;20536;-37
2021/12/17 01:43:42;;;;;;;15.85;9.57;;;;;;;0.65;78.97;94009.66;5078502;28;20037;-37
2021/12/17 01:46:11;;;;;;;15.88;10.65;;;;;;;0.43;80.68;94006.59;5075247;28;20036;-37
2021/12/17 01:48:58;;;;;;;23.33;12.00;;;;;;;0.47;80.97;93993.59;5078120;28;20544;-37
2021/12/17 01:59:46;;;;;;;18.00;10.05;;;;;;;0.48;79.37;94002.47;5063034;28;20044;-37
2021/12/17 02:02:14;;;;;;;17.02;9.60;;;;;;;0.27;79.83;93987.31;5076125;28;20039;-37
2021/12/17 02:04:39;;;;;;;15.98;9.88;;;;;;;0.30;80.14;93994.53;5078901;28;20039;-38
2021/12/17 02:07:05;;;;;;;18.65;9.25;;;;;;;0.31;80.81;93987.88;5076504;28;20032;-38
2021/12/17 02:20:41;;;;;;;16.15;10.48;;;;;;;0.87;79.01;93998.34;5078698;28;20101;-38
2021/12/17 02:31:32;;;;;;;17.77;9.52;;;;;;;0.70;80.08;93998.13;5080029;28;20051;-38
2021/12/17 02:34:46;;;;;;;18.90;9.80;;;;;;;0.77;79.07;93997.75;5078962;28;20188;-38
2021/12/17 02:37:00;;;;;;;17.58;10.52;;;;;;;0.80;79.33;93995.31;5075580;28;20421;-38
2021/12/17 02:48:07;;;;;;;19.05;11.13;;;;;;;0.78;79.61;93991.06;5078876;28;20034;-37
2021/12/17 02:50:38;;;;;;;16.00;10.02;;;;;;;0.87;78.19;93992.19;5076656;28;20024;-37
2021/12/17 02:53:07;;;;;;;19.65;11.65;;;;;;;0.84;78.24;93993.13;5077480;28;20416;-38
2021/12/17 02:55:35;;;;;;;18.90;11.25;;;;;;;0.93;77.56;93988.34;5077972;28;20089;-38
2021/12/17 02:58:00;;;;;;;18.67;11.27;;;;;;;0.73;78.71;93996.44;5076344;28;20016;-37
2021/12/17 03:00:28;;;;;;;18.35;11.32;;;;;;;0.57;78.93;93991.50;5078370;28;20055;-38
2021/12/17 03:02:55;;;;;;;17.77;10.35;;;;;;;0.75;78.50;93994.00;5077885;28;20020;-37
2021/12/17 03:05:21;;;;;;;20.30;10.35;;;;;;;0.74;78.21;93987.06;5078317;28;20096;-38
2021/12/17 03:07:48;;;;;;;18.48;9.90;;;;;;;0.67;78.71;93993.63;5079041;28;20032;-38
2021/12/17 03:10:15;;;;;;;16.50;9.63;;;;;;;0.40;79.40;93993.97;5073921;28;20502;-38
2021/12/17 03:12:45;;;;;;;20.23;11.25;;;;;;;0.34;80.59;93984.22;5080286;28;20036;-38
2021/12/17 03:15:24;;;;;;;21.05;10.45;;;;;;;0.51;79.70;93982.50;5081776;28;20035;-38
2021/12/17 03:26:05;;;;;;;17.30;9.65;;;;;;;0.60;78.75;93980.44;5082187;28;20024;-38
2021/12/17 03:28:32;;;;;;;16.58;9.95;;;;;;;0.56;78.75;93971.00;5079495;28;20024;-38
2021/12/17 03:30:58;;;;;;;16.10;9.15;;;;;;;0.54;79.25;93976.16;5079543;28;20545;-37
2021/12/17 03:33:23;;;;;;;16.17;10.30;;;;;;;0.50;79.67;93970.13;5082212;28;20072;-37
2021/12/17 03:35:50;;;;;;;21.17;11.35;;;;;;;0.21;79.98;93967.47;5080117;28;20044;-38
2021/12/17 03:38:17;;;;;;;23.77;12.70;;;;;;;0.20;80.69;93976.81;5079755;28;20120;-38
2021/12/17 03:40:44;;;;;;;19.23;9.93;;;;;;;0.22;80.53;93968.97;5081652;28;20027;-38
2021/12/17 03:43:20;;;;;;;17.77;10.52;;;;;;;0.29;79.85;93946.84;5080759;28;20077;-38
2021/12/17 03:45:46;;;;;;;14.07;8.73;;;;;;;0.52;79.34;93973.88;5079138;28;20154;-38
2021/12/17 03:48:11;;;;;;;14.10;9.15;;;;;;;0.56;79.46;93973.72;5080711;28;20546;-38
2021/12/17 03:50:37;;;;;;;16.35;9.10;;;;;;;0.55;79.57;93970.25;5080076;28;20039;-38
2021/12/17 03:53:04;;;;;;;17.85;10.13;;;;;;;0.69;79.15;93977.59;5083856;28;20055;-37
2021/12/17 03:55:30;;;;;;;21.77;11.88;;;;;;;0.48;79.51;93970.63;5080274;28;20456;-38
2021/12/17 03:57:58;;;;;;;27.33;15.50;;;;;;;0.21;80.55;93964.75;5081648;28;20124;-38
2021/12/17 04:00:24;;;;;;;23.15;12.15;;;;;;;0.16;81.80;93966.16;5080096;28;20036;-38
2021/12/17 04:02:50;;;;;;;32.03;14.85;;;;;;;0.02;82.02;93966.16;5081458;28;20093;-37
2021/12/17 04:05:15;;;;;;;16.67;10.05;;;;;;;0.19;82.40;93967.19;5080509;28;20133;-37
2021/12/17 04:07:41;;;;;;;17.63;11.45;;;;;;;-0.05;82.66;93949.06;5082270;28;20502;-37
2021/12/17 04:10:06;;;;;;;22.08;12.82;;;;;;;-0.05;82.80;93951.75;5079451;28;20042;-38
2021/12/17 04:12:51;;;;;;;18.92;12.18;;;;;;;0.16;82.24;93962.69;5081845;28;20024;-37
2021/12/17 04:15:17;;;;;;;22.80;12.15;;;;;;;0.02;81.95;93958.03;5079960;28;20056;-38
2021/12/17 04:17:46;;;;;;;21.77;11.10;;;;;;;0.16;82.05;93968.13;5079398;28;20055;-38
2021/12/17 04:20:12;;;;;;;61.60;31.15;;;;;;;-0.05;82.07;93940.91;5079485;28;20118;-39
2021/12/17 04:22:38;;;;;;;28.90;17.23;;;;;;;0.32;81.07;93954.84;5078424;28;20112;-38
2021/12/17 04:25:04;;;;;;;16.60;9.82;;;;;;;0.48;80.02;93948.88;5078594;28;20396;-38
2021/12/17 04:27:30;;;;;;;13.43;8.55;;;;;;;0.52;79.61;93922.28;5081776;28;20024;-38
2021/12/17 04:29:57;;;;;;;13.43;8.85;;;;;;;0.56;79.38;93911.22;5079393;28;20028;-38
2021/12/17 04:32:22;;;;;;;13.68;8.68;;;;;;;0.78;78.81;93919.66;5082434;28;20028;-37
2021/12/17 04:34:48;;;;;;;13.38;8.73;;;;;;;0.89;78.57;93933.41;5079182;28;20492;-38
2021/12/17 04:37:14;;;;;;;16.20;9.02;;;;;;;0.88;78.73;93937.34;5079906;28;20032;-38
2021/12/17 04:39:40;;;;;;;34.63;10.88;;;;;;;0.80;78.63;93930.06;5082096;28;20429;-37
2021/12/17 04:42:16;;;;;;;23.35;12.70;;;;;;;0.91;78.23;93928.22;5079416;28;20138;-37
2021/12/17 04:44:49;;;;;;;19.60;12.18;;;;;;;0.88;78.66;93926.47;5078157;28;20024;-37
2021/12/17 04:57:51;;;;;;;23.35;10.73;;;;;;;0.65;79.62;93911.84;5079747;28;20528;-37
2021/12/17 05:00:20;;;;;;;;;;;;;;;0.65;78.94;93913.81;5080143;28;20032;-37
2021/12/17 05:02:49;;;;;;;49.22;25.42;;;;;;;0.44;79.69;93913.03;5077052;28;19916;-38
2021/12/17 05:05:16;;;;;;;44.08;21.20;;;;;;;0.54;80.83;93902.81;5076376;28;20158;-37
2021/12/17 05:07:54;;;;;;;22.73;12.30;;;;;;;0.77;79.94;93921.66;5076393;28;20035;-38
2021/12/17 05:20:57;;;;;;;25.77;13.75;;;;;;;0.78;79.61;93914.97;5079545;28;20254;-39
2021/12/17 05:23:29;;;;;;;47.20;23.67;;;;;;;0.90;79.03;93924.03;5079674;28;20032;-39
2021/12/17 05:25:56;;;;;;;45.58;23.45;;;;;;;0.99;79.63;93925.88;5080374;28;20028;-39
2021/12/17 05:28:21;;;;;;;23.15;12.98;;;;;;;1.02;79.38;93914.06;5076341;28;20592;-39
2021/12/17 05:30:48;;;;;;;16.95;11.13;;;;;;;1.16;77.82;93908.53;5077889;28;20024;-38
2021/12/17 05:33:18;;;;;;;18.45;12.25;;;;;;;1.05;77.18;93902.97;5076709;28;20023;-39
2021/12/17 05:35:44;;;;;;;26.58;15.55;;;;;;;0.91;78.71;93895.59;5076602;28;20028;-39
2021/12/17 05:38:11;;;;;;;31.52;18.25;;;;;;;0.86;79.51;93901.75;5076737;28;20038;-39
2021/12/17 05:40:37;;;;;;;49.15;26.50;;;;;;;0.90;79.78;93902.28;5080044;28;20024;-39
2021/12/17 05:43:05;;;;;;;29.27;17.35;;;;;;;0.96;78.93;93905.06;5077615;28;20490;-38
2021/12/17 05:45:47;;;;;;;34.00;19.00;;;;;;;0.83;79.19;93910.84;5076928;28;20039;-39
2021/12/17 05:48:15;;;;;;;34.90;18.98;;;;;;;0.67;79.97;93898.53;5078593;28;20020;-38
2021/12/17 05:50:43;;;;;;;30.15;15.00;;;;;;;0.63;80.52;93905.38;5079575;28;20032;-38
2021/12/17 05:53:10;;;;;;;29.00;16.30;;;;;;;0.59;81.15;93899.38;5077487;28;20515;-38
2021/12/17 05:55:36;;;;;;;29.48;16.20;;;;;;;0.49;80.70;93906.19;5076151;28;20508;-37
2021/12/17 05:58:03;;;;;;;39.55;20.77;;;;;;;0.46;81.40;93907.13;5077244;28;20027;-37
2021/12/17 06:00:30;;;;;;;28.00;14.23;;;;;;;0.30;81.02;93902.97;5077622;28;20032;-37
2021/12/17 06:02:56;;;;;;;20.95;12.57;;;;;;;0.40;81.37;93915.19;5078571;28;20437;-37
2021/12/17 06:05:22;;;;;;;28.38;14.25;;;;;;;0.47;80.85;93893.06;5077239;28;20037;-38
2021/12/17 06:07:48;;;;;;;17.08;11.00;;;;;;;0.69;80.27;93906.94;5077735;28;20024;-38
2021/12/17 06:10:13;;;;;;;17.05;10.48;;;;;;;0.65;80.47;93908.38;5078899;28;20099;-38
2021/12/17 06:12:40;;;;;;;15.18;8.95;;;;;;;0.68;80.12;93918.28;5079172;28;20037;-38
2021/12/17 06:15:07;;;;;;;17.25;10.88;;;;;;;0.76;79.92;93924.81;5078351;28;20771;-38
2021/12/17 06:17:39;;;;;;;16.75;10.25;;;;;;;0.88;80.19;93925.72;5079087;28;20409;-37
2021/12/17 06:20:07;;;;;;;16.52;9.70;;;;;;;1.05;79.23;93929.41;5077106;28;20029;-38
2021/12/17 06:22:33;;;;;;;18.63;10.55;;;;;;;1.11;79.22;93922.06;5082572;28;20028;-38
2021/12/17 06:24:58;;;;;;;22.55;10.60;;;;;;;1.14;78.99;93934.72;5080639;28;20024;-38
2021/12/17 06:27:24;;;;;;;20.33;12.55;;;;;;;1.15;79.62;93928.06;5077847;28;20028;-38
2021/12/17 06:29:53;;;;;;;17.52;11.65;;;;;;;1.23;79.91;93931.84;5079864;28;20405;-37
2021/12/17 06:32:20;;;;;;;25.58;14.25;;;;;;;1.33;79.91;93935.91;5077853;28;20537;-37
2021/12/17 06:34:47;;;;;;;34.65;20.10;;;;;;;1.34;79.39;93932.72;5076134;28;20028;-38
2021/12/17 06:37:15;;;;;;;29.75;16.92;;;;;;;1.35;79.20;93928.03;5075447;28;20096;-38
2021/12/17 06:39:41;;;;;;;26.30;15.43;;;;;;;1.39;78.69;93929.31;5073496;28;20028;-37
2021/12/17 06:42:06;;;;;;;37.40;20.45;;;;;;;1.43;78.03;93924.41;5074755;28;20035;-37
2021/12/17 06:44:32;;;;;;;43.40;22.25;;;;;;;1.50;77.83;93918.56;5074854;28;20031;-38
2021/12/17 06:47:06;;;;;;;47.90;25.35;;;;;;;1.60;77.58;93926.56;5076361;28;20033;-37
2021/12/17 06:55:03;;;;;;;57.10;32.05;;;;;;;1.60;78.59;93910.25;5077806;28;20063;-37
2021/12/17 07:10:42;;;;;;;37.35;26.90;;;;;;;1.51;82.21;93917.34;5078953;28;20111;-37
2021/12/17 07:24:37;;;;;;;31.70;21.50;;;;;;;1.62;82.57;93886.03;5076142;28;20447;-37
2021/12/17 07:39:37;;;;;;;32.65;19.00;;;;;;;1.35;83.19;93852.63;5078455;28;20429;-37
2021/12/17 07:42:03;;;;;;;23.10;13.95;;;;;;;1.43;84.04;93899.16;5075614;28;20111;-37
2021/12/17 07:44:28;;;;;;;26.75;14.45;;;;;;;1.58;84.31;93899.09;5078756;28;20039;-37
2021/12/17 07:46:54;;;;;;;220.57;109.78;;;;;;;1.65;84.02;93898.66;5077170;28;20086;-37
2021/12/17 07:49:20;;;;;;;48.78;25.27;;;;;;;1.75;83.75;93891.84;5078923;28;20090;-37
2021/12/17 07:51:46;;;;;;;81.07;40.83;;;;;;;1.80;84.02;93883.72;5079792;28;20032;-37
2021/12/17 07:54:12;;;;;;;88.97;45.92;;;;;;;1.64;83.88;93892.47;5077039;28;20181;-37
2021/12/17 07:56:38;;;;;;;112.30;54.50;;;;;;;1.70;84.13;93887.06;5079167;28;20119;-37
2021/12/17 07:59:05;;;;;;;30.08;16.38;;;;;;;1.62;84.54;93900.38;5075065;28;20032;-37
2021/12/17 08:01:30;;;;;;;33.13;17.88;;;;;;;1.66;85.01;93897.44;5078410;28;20028;-37
2021/12/17 08:03:56;;;;;;;60.92;32.40;;;;;;;1.77;84.44;93892.09;5078564;28;20046;-37
2021/12/17 08:06:21;;;;;;;32.65;20.88;;;;;;;1.85;84.27;93887.72;5079821;28;20035;-37
2021/12/17 08:08:47;;;;;;;42.90;23.90;;;;;;;1.79;83.90;93889.63;5077206;28;20032;-37
2021/12/17 08:11:13;;;;;;;54.80;33.47;;;;;;;1.65;84.30;93891.25;5076426;28;20020;-37
2021/12/17 08:13:40;;;;;;;74.80;43.08;;;;;;;1.69;84.57;93899.94;5077382;28;20505;-37
2021/12/17 08:26:42;;;;;;;22.83;16.65;;;;;;;1.81;85.21;93895.34;5077871;28;20477;-37
2021/12/17 08:31:36;;;;;;;17.17;13.43;;;;;;;1.68;85.14;93876.69;5075806;28;20078;-38
2021/12/17 08:34:04;;;;;;;11.38;7.80;;;;;;;1.91;84.83;93888.50;5077351;28;20566;-37
2021/12/17 08:36:30;;;;;;;31.33;17.52;;;;;;;1.87;84.96;93893.41;5077882;28;20154;-37
2021/12/17 08:38:56;;;;;;;20.77;14.48;;;;;;;1.81;85.35;93882.50;5078625;28;20141;-37
2021/12/17 08:41:22;;;;;;;15.43;11.18;;;;;;;1.89;85.10;93885.50;5077831;28;20523;-37
2021/12/17 08:43:48;;;;;;;12.05;8.25;;;;;;;1.93;84.61;93875.16;5078759;28;20046;-37
2021/12/17 08:46:14;;;;;;;9.70;7.53;;;;;;;1.73;85.12;93872.53;5077404;28;20073;-38
2021/12/17 08:48:39;;;;;;;11.25;8.40;;;;;;;1.79;85.71;93873.31;5072324;28;20028;-38
2021/12/17 08:51:06;;;;;;;12.68;8.38;;;;;;;1.75;85.10;93870.81;5078606;28;20496;-38
2021/12/17 08:53:32;;;;;;;13.63;11.55;;;;;;;1.74;86.19;93866.59;5079341;28;20090;-38
2021/12/17 08:55:58;;;;;;;9.88;7.97;;;;;;;1.75;86.33;93870.06;5075977;28;20806;-38
2021/12/17 08:58:24;;;;;;;9.85;7.95;;;;;;;1.77;86.06;93875.78;5079233;28;20107;-38
2021/12/17 09:00:49;;;;;;;21.05;13.02;;;;;;;1.82;86.26;93866.91;5077831;28;20805;-38
2021/12/17 09:03:15;;;;;;;15.70;9.32;;;;;;;1.89;85.81;93869.94;5075523;28;20024;-38
2021/12/17 09:05:43;;;;;;;9.93;6.68;;;;;;;1.93;86.24;93873.19;5078603;28;20059;-38
2021/12/17 09:08:10;;;;;;;10.07;7.13;;;;;;;1.89;85.42;93869.94;5078731;28;20069;-38
2021/12/17 09:10:36;;;;;;;10.73;8.88;;;;;;;1.94;86.24;93850.19;5078115;28;20092;-38
2021/12/17 09:13:02;;;;;;;12.20;9.15;;;;;;;1.91;86.70;93844.94;5075418;28;20059;-38
2021/12/17 09:15:28;;;;;;;12.13;9.20;;;;;;;1.93;87.23;93845.19;5077451;28;20063;-37
2021/12/17 09:17:53;;;;;;;11.65;8.13;;;;;;;1.95;87.25;93840.03;5076879;28;20453;-37
2021/12/17 09:20:19;;;;;;;9.30;7.55;;;;;;;1.94;87.04;93835.81;5076008;28;20089;-38
2021/12/17 09:22:45;;;;;;;15.00;9.18;;;;;;;1.92;87.29;93819.22;5076227;28;20111;-38
2021/12/17 09:25:14;;;;;;;11.35;8.70;;;;;;;2.04;87.01;93824.25;5076088;28;20770;-38
2021/12/17 09:27:41;;;;;;;11.60;8.75;;;;;;;2.14;86.70;93825.56;5077118;28;20025;-37
2021/12/17 09:30:10;;;;;;;12.52;8.68;;;;;;;2.25;86.29;93814.00;5076931;28;20032;-38
2021/12/17 09:32:35;;;;;;;;;;;;;;;2.37;86.24;93814.81;5075423;28;20035;-38
2021/12/17 09:35:01;;;;;;;12.05;8.77;;;;;;;2.45;85.64;93805.69;5076367;28;19916;-37
2021/12/17 09:37:26;;;;;;;11.40;8.63;;;;;;;2.56;85.03;93794.09;5078765;28;20493;-38
2021/12/17 09:39:52;;;;;;;18.58;10.43;;;;;;;2.60;84.89;93800.78;5076428;28;20541;-37
2021/12/17 09:42:17;;;;;;;15.05;9.75;;;;;;;2.54;85.09;93786.41;5079612;28;20060;-38
2021/12/17 09:44:43;;;;;;;14.15;9.55;;;;;;;2.67;84.96;93775.06;5078773;28;20049;-38
2021/12/17 09:47:09;;;;;;;13.25;8.93;;;;;;;2.70;84.19;93776.81;5078594;28;20073;-38
2021/12/17 09:49:34;;;;;;;14.40;9.63;;;;;;;2.80;83.75;93772.63;5077014;28;20036;-38
2021/12/17 09:52:01;;;;;;;12.50;8.77;;;;;;;2.91;83.82;93765.25;5076690;28;20552;-37
2021/12/17 09:54:27;;;;;;;12.60;9.23;;;;;;;2.95;83.11;93763.00;5075972;28;20051;-38
2021/12/17 09:56:53;;;;;;;13.43;9.40;;;;;;;2.89;83.68;93765.00;5077350;28;20166;-37
2021/12/17 09:59:21;;;;;;;9.75;7.45;;;;;;;2.74;84.04;93750.81;5073356;28;20052;-37
2021/12/17 10:01:47;;;;;;;11.85;9.38;;;;;;;2.85;84.27;93744.66;5077706;28;20028;-38
2021/12/17 10:04:18;;;;;;;12.65;8.25;;;;;;;2.79;84.24;93750.09;5075495;28;20493;-38
2021/12/17 10:06:45;;;;;;;11.90;8.70;;;;;;;2.92;83.29;93746.91;5075134;28;20024;-38
2021/12/17 10:09:10;;;;;;;11.23;8.98;;;;;;;2.76;83.34;93723.81;5073455;28;20416;-38
2021/12/17 10:11:36;;;;;;;13.95;8.93;;;;;;;2.84;83.10;93732.97;5073804;28;20034;-38
2021/12/17 10:14:19;;;;;;;12.82;8.30;;;;;;;2.93;82.97;93730.03;5072399;28;20028;-38
2021/12/17 10:16:45;;;;;;;13.00;9.93;;;;;;;3.03;83.17;93728.56;5075796;28;20032;-37
2021/12/17 10:19:11;;;;;;;14.73;10.75;;;;;;;3.05;82.71;93730.81;5072095;28;20036;-37
2021/12/17 10:21:44;;;;;;;10.98;8.15;;;;;;;3.00;82.92;93718.66;5075425;28;20422;-38
2021/12/17 10:24:23;;;;;;;10.32;8.15;;;;;;;3.17;82.84;93720.66;5075155;28;20028;-38
2021/12/17 10:26:49;;;;;;;17.23;12.18;;;;;;;3.26;82.14;93715.72;5075542;28;20102;-38
2021/12/17 10:29:20;;;;;;;11.65;6.90;;;;;;;3.40;81.68;93714.72;5074541;28;20508;-38
2021/12/17 10:31:55;;;;;;;10.07;8.40;;;;;;;3.48;80.98;93709.50;5076027;28;20420;-37
2021/12/17 10:34:20;;;;;;;14.18;9.40;;;;;;;3.43;81.33;93702.06;5073795;28;20093;-38
2021/12/17 10:36:46;;;;;;;10.90;8.25;;;;;;;3.50;81.52;93699.59;5076248;28;20028;-38
2021/12/17 10:39:24;;;;;;;21.25;8.50;;;;;;;3.54;80.47;93691.91;5074501;28;20067;-38
2021/12/17 10:41:50;;;;;;;9.43;7.63;;;;;;;3.57;80.47;93684.69;5073239;28;20032;-37
2021/12/17 10:44:16;;;;;;;13.82;7.10;;;;;;;3.65;79.83;93688.41;5073381;28;20124;-38
2021/12/17 10:47:07;;;;;;;10.07;8.07;;;;;;;3.68;79.31;93685.41;5074572;28;20139;-38
2021/12/17 10:49:33;;;;;;;7.63;6.55;;;;;;;3.70;79.04;93669.28;5075027;28;20024;-38
2021/12/17 10:52:14;;;;;;;9.95;6.65;;;;;;;3.63;79.07;93671.78;5076701;28;20028;-38
2021/12/17 10:54:40;;;;;;;6.97;6.25;;;;;;;3.58;79.21;93669.78;5076501;28;20058;-38
2021/12/17 10:57:07;;;;;;;9.68;7.53;;;;;;;3.66;79.55;93666.06;5074741;28;20062;-38
2021/12/17 10:59:35;;;;;;;14.05;7.57;;;;;;;3.63;79.23;93664.34;5073139;28;20118;-38
2021/12/17 11:02:06;;;;;;;6.20;5.47;;;;;;;3.67;78.96;93664.06;5076914;28;21380;-38
2021/12/17 11:04:40;;;;;;;9.48;6.80;;;;;;;3.70;78.67;93663.09;5075599;28;20028;-38
2021/12/17 11:07:17;;;;;;;7.22;6.18;;;;;;;3.52;79.33;93645.25;5074943;28;20043;-37
2021/12/17 11:09:47;;;;;;;8.02;6.75;;;;;;;3.68;79.17;93654.66;5073539;28;20032;-38
2021/12/17 11:12:32;;;;;;;8.57;6.30;;;;;;;3.62;79.29;93656.63;5075655;28;20071;-37
2021/12/17 11:15:09;;;;;;;9.77;6.50;;;;;;;3.53;79.89;93649.44;5070895;28;20462;-36
2021/12/17 11:17:36;;;;;;;15.15;10.32;;;;;;;3.51;79.38;93634.84;5074450;28;20459;-36
2021/12/17 11:20:11;;;;;;;15.63;11.40;;;;;;;3.63;79.40;93650.69;5071171;28;20028;-36
2021/12/17 11:22:39;;;;;;;14.55;10.52;;;;;;;3.57;79.75;93635.56;5074468;28;20028;-36
2021/12/17 11:25:05;;;;;;;8.65;5.53;;;;;;;3.55;80.59;93635.31;5076255;28;21256;-37
2021/12/17 11:27:32;;;;;;;8.68;6.78;;;;;;;3.58;80.19;93617.94;5075052;28;20038;-35
2021/12/17 11:29:58;;;;;;;10.77;7.03;;;;;;;3.68;80.58;93630.81;5073782;28;20063;-36
2021/12/17 11:32:23;;;;;;;7.82;6.22;;;;;;;3.66;80.51;93616.19;5073542;28;20065;-36
2021/12/17 11:34:49;;;;;;;8.25;7.15;;;;;;;3.65;80.96;93611.97;5077842;28;20032;-36
2021/12/17 11:37:15;;;;;;;8.30;6.60;;;;;;;3.71;81.20;93618.16;5078511;28;20062;-36
2021/12/17 11:39:49;;;;;;;8.02;5.60;;;;;;;3.76;81.00;93614.66;5078539;28;20031;-37
2021/12/17 11:42:48;;;;;;;7.50;5.43;;;;;;;3.55;80.98;93614.19;5075486;28;20100;-36
2021/12/17 11:45:28;;;;;;;17.67;13.55;;;;;;;3.46;80.66;93600.09;5077307;28;20035;-37
2021/12/17 11:48:10;;;;;;;9.20;8.23;;;;;;;3.34;81.88;93585.72;5076516;28;20143;-36
2021/12/17 11:50:35;;;;;;;12.82;8.32;;;;;;;3.34;81.34;93602.09;5075907;28;20040;-36
2021/12/17 11:53:15;;;;;;;10.05;7.88;;;;;;;3.06;82.68;93576.81;5076252;28;20506;-36
2021/12/17 11:55:45;;;;;;;8.63;5.68;;;;;;;3.00;82.16;93551.53;5077634;28;20143;-36
2021/12/17 11:58:15;;;;;;;8.95;6.28;;;;;;;3.12;82.92;93582.28;5075950;28;20048;-36
2021/12/17 12:00:40;;;;;;;8.15;7.45;;;;;;;3.22;83.45;93586.22;5074110;28;20110;-36
2021/12/17 12:03:17;;;;;;;8.52;7.68;;;;;;;3.30;82.94;93582.50;5078264;28;20058;-36
2021/12/17 12:05:45;;;;;;;10.73;7.97;;;;;;;3.32;83.13;93574.56;5076102;28;20090;-36
2021/12/17 12:08:30;;;;;;;8.05;7.15;;;;;;;3.32;83.06;93577.28;5077908;28;20039;-37
2021/12/17 12:11:12;;;;;;;9.95;7.45;;;;;;;3.35;83.84;93575.53;5078290;28;20035;-37
2021/12/17 12:13:46;;;;;;;10.50;7.10;;;;;;;3.48;83.08;93573.78;5076486;28;20043;-37
2021/12/17 12:16:19;;;;;;;6.03;5.43;;;;;;;3.42;83.20;93581.22;5077230;28;20047;-37
2021/12/17 12:19:04;;;;;;;7.68;6.53;;;;;;;3.41;82.91;93568.09;5075844;28;20066;-37
2021/12/17 12:21:38;;;;;;;8.10;6.60;;;;;;;3.37;83.18;93567.59;5076216;28;20496;-37
2021/12/17 12:24:12;;;;;;;8.27;6.47;;;;;;;3.38;83.35;93563.66;5075955;28;20075;-36
2021/12/17 12:26:49;;;;;;;7.10;5.88;;;;;;;3.47;83.03;93566.84;5075896;28;20028;-36
2021/12/17 12:29:25;;;;;;;6.95;5.47;;;;;;;3.54;82.63;93563.59;5074730;28;20034;-36
2021/12/17 12:31:55;;;;;;;11.15;7.72;;;;;;;3.48;82.60;93559.41;5076640;28;20059;-36
2021/12/17 12:34:29;;;;;;;19.38;11.57;;;;;;;3.56;82.79;93554.91;5076904;28;20026;-37
2021/12/17 12:36:57;;;;;;;7.18;6.03;;;;;;;3.56;82.37;93561.09;5075866;28;20060;-37
2021/12/17 12:39:32;;;;;;;11.20;6.68;;;;;;;3.40;82.33;93555.69;5076391;28;20501;-36
2021/12/17 12:42:05;;;;;;;7.57;6.53;;;;;;;3.42;83.01;93550.47;5077775;28;20036;-37
2021/12/17 12:44:40;;;;;;;5.68;4.75;;;;;;;3.14;82.88;93500.69;5075674;28;20031;-36
2021/12/17 12:47:07;;;;;;;6.55;5.85;;;;;;;3.52;82.69;93549.72;5077344;28;20082;-37
2021/12/17 12:49:56;;;;;;;9.10;8.15;;;;;;;3.48;82.71;93556.66;5076493;28;20067;-36
2021/12/17 12:52:39;;;;;;;8.60;7.15;;;;;;;3.41;82.94;93543.53;5074485;28;20032;-36
2021/12/17 12:55:14;;;;;;;10.63;8.85;;;;;;;3.31;82.44;93532.16;5075300;28;20048;-36
2021/12/17 12:57:46;;;;;;;16.85;11.95;;;;;;;3.32;83.02;93541.81;5074217;28;20621;-36
2021/12/17 13:00:25;;;;;;;11.32;8.63;;;;;;;3.32;83.06;93541.81;5076137;28;20032;-35
2021/12/17 13:02:56;;;;;;;8.38;7.32;;;;;;;3.34;83.28;93547.50;5074582;28;20031;-35
2021/12/17 13:05:23;;;;;;;8.68;5.95;;;;;;;3.25;83.73;93538.88;5076921;28;20044;-35
2021/12/17 13:07:51;;;;;;;11.05;6.50;;;;;;;3.28;83.78;93540.56;5075458;28;20028;-35
2021/12/17 13:10:20;;;;;;;7.13;5.82;;;;;;;3.21;83.25;93541.09;5072776;28;20044;-36
2021/12/17 13:12:58;;;;;;;5.78;4.75;;;;;;;3.26;83.54;93532.16;5075245;28;20035;-35
2021/12/17 13:23:22;;;;;;;14.70;11.95;;;;;;;3.36;82.01;93534.09;5074457;28;20042;-35
2021/12/17 13:26:09;;;;;;;5.95;4.55;;;;;;;2.96;83.05;93537.41;5075979;28;20034;-35
2021/12/17 13:28:53;;;;;;;9.82;7.07;;;;;;;2.40;84.74;93525.78;5074349;28;20032;-36
2021/12/17 13:31:33;;;;;;;13.45;10.35;;;;;;;2.35;84.44;93520.31;5073298;28;20447;-36
2021/12/17 13:33:58;;;;;;;15.65;11.68;;;;;;;2.28;85.07;93524.25;5078300;28;20070;-35
2021/12/17 13:36:25;;;;;;;13.65;8.75;;;;;;;2.37;85.57;93518.56;5078346;28;20048;-35
2021/12/17 13:38:57;;;;;;;8.00;6.22;;;;;;;2.40;84.60;93506.69;5074955;28;20028;-36
2021/12/17 13:41:37;;;;;;;8.25;6.10;;;;;;;2.05;85.23;93479.16;5074851;28;20154;-35
2021/12/17 13:44:04;;;;;;;12.48;6.47;;;;;;;2.30;85.18;93508.16;5076715;28;20102;-36
2021/12/17 13:46:30;;;;;;;10.32;8.02;;;;;;;2.35;85.43;93518.31;5075354;28;20564;-35
2021/12/17 13:48:55;;;;;;;32.78;19.08;;;;;;;2.44;84.71;93520.81;5077119;28;20076;-36
2021/12/17 13:51:21;;;;;;;53.25;29.88;;;;;;;2.44;84.43;93523.53;5075303;28;20107;-36
2021/12/17 13:53:48;;;;;;;19.15;11.52;;;;;;;2.28;84.67;93518.81;5074013;28;20062;-35
2021/12/17 13:56:17;;;;;;;12.43;7.43;;;;;;;2.33;84.64;93514.59;5078386;28;20021;-36
2021/12/17 13:58:42;;;;;;;24.23;15.05;;;;;;;2.37;85.56;93518.56;5074725;28;20039;-37
2021/12/17 14:01:08;;;;;;;13.88;9.05;;;;;;;2.45;85.46;93516.84;5072466;28;20045;-36
2021/12/17 14:03:38;;;;;;;11.13;7.22;;;;;;;2.49;85.57;93506.44;5078272;28;20080;-36
2021/12/17 14:06:17;;;;;;;6.00;4.55;;;;;;;2.41;85.63;93510.91;5073148;28;20098;-36
2021/12/17 14:08:43;;;;;;;9.00;4.35;;;;;;;2.52;85.27;93516.34;5072880;28;20031;-36
2021/12/17 14:11:29;;;;;;;7.95;5.95;;;;;;;2.58;85.00;93508.19;5075293;28;20029;-36
2021/12/17 14:13:54;;;;;;;10.63;6.50;;;;;;;2.52;85.06;93510.16;5077968;28;20082;-36
2021/12/17 14:16:31;;;;;;;14.75;10.70;;;;;;;2.56;85.54;93519.56;5073900;28;20520;-36
2021/12/17 14:19:01;;;;;;;10.40;8.25;;;;;;;2.50;85.35;93524.28;5075831;28;20744;-36
2021/12/17 14:21:31;;;;;;;15.02;10.38;;;;;;;2.53;85.29;93528.00;5075269;28;20097;-36
2021/12/17 14:23:58;;;;;;;9.38;6.60;;;;;;;2.49;84.56;93536.41;5076839;28;20036;-36
2021/12/17 14:26:28;;;;;;;9.20;6.00;;;;;;;2.54;84.73;93534.94;5071227;28;20591;-36
2021/12/17 14:28:54;;;;;;;6.60;5.85;;;;;;;2.42;83.58;93541.63;5077148;28;20092;-36
2021/12/17 14:31:23;;;;;;;7.97;5.78;;;;;;;2.38;83.99;93539.16;5077147;28;20475;-36
2021/12/17 14:33:50;;;;;;;10.55;6.80;;;;;;;2.24;83.69;93521.78;5073483;28;20055;-36
2021/12/17 14:36:26;;;;;;;6.38;5.75;;;;;;;2.33;83.78;93548.03;5075426;28;20029;-36
2021/12/17 14:39:05;;;;;;;12.85;7.65;;;;;;;2.39;84.07;93548.78;5073758;28;20051;-36
2021/12/17 14:41:52;;;;;;;;;;;;;;;2.41;84.13;93549.03;5075903;28;20437;-36
2021/12/17 14:47:01;;;;;;;15.38;8.50;;;;;;;2.39;84.45;93539.88;5073084;28;20758;-36